MOL Growth — VRKR4 — position and weather

sailwx.info

Track history (hours):
 
Tides and Currents Weather Stations Pressure Air Temp Water Temp Dewpoint Dewpoint Depression Visibility Wind Speed Wind Dir Waves Ship Positions

MOL Growth

Last reported at 2018-Feb-16 03:07 UTC. Time now 2018-Feb-23 12:56 UTC.
Position N 01°15' E 104°06'.

Length 275 m; draft 13.2 m.

Type: Ship (hazmat cat A). MMSI: 477947100.

Date/timePositionNaut miles runAvg speedWind from/ knotsBaromVisibWave heightAir tempDewpointWater temp
2018-Feb-16 03:07N 01°15' E 104°06'318.9
2018-Feb-16 02:59N 01°15' E 104°04'918.4
2018-Feb-16 02:30N 01°13' E 103°55'713.4
2018-Feb-16 02:00N 01°12' E 103°49'611.3
2018-Feb-16 01:30N 01°16' E 103°45'1 1.9
2018-Feb-16 00:58N 01°17' E 103°46'0 0.0
2018-Feb-16 00:29N 01°17' E 103°46'0 0.0
2018-Feb-16 00:00N 01°17' E 103°46'0 0.0
2018-Feb-15 23:30N 01°17' E 103°46'0 0.0
2018-Feb-15 22:59N 01°17' E 103°46'0 0.0
2018-Feb-15 22:29N 01°17' E 103°46'0 0.0
2018-Feb-15 21:58N 01°17' E 103°46'0 0.0
2018-Feb-15 21:29N 01°17' E 103°46'0 0.0
2018-Feb-15 21:00N 01°17' E 103°46'0 0.0
2018-Feb-15 20:26N 01°17' E 103°46'0 0.0
2018-Feb-15 19:59N 01°17' E 103°46'0 0.0
2018-Feb-15 19:29N 01°17' E 103°46'0 0.0
2018-Feb-15 18:58N 01°17' E 103°46'0 0.0
2018-Feb-15 18:29N 01°17' E 103°46'0 0.0
2018-Feb-15 17:59N 01°17' E 103°46'0 0.0
2018-Feb-15 17:28N 01°17' E 103°46'0 0.0
2018-Feb-15 16:56N 01°17' E 103°46'0 0.0
2018-Feb-15 16:29N 01°17' E 103°46'0 0.0
2018-Feb-15 16:00N 01°17' E 103°46'0 0.0
2018-Feb-15 15:30N 01°17' E 103°46'0 0.0
2018-Feb-15 15:00N 01°17' E 103°46'0 0.0
2018-Feb-15 14:25N 01°17' E 103°46'0 0.0
2018-Feb-15 14:00N 01°17' E 103°46'0 0.0
2018-Feb-15 13:30N 01°17' E 103°46'0 0.0
2018-Feb-15 13:00N 01°17' E 103°46'0 0.0
2018-Feb-15 12:26N 01°17' E 103°46'0 0.0
2018-Feb-15 11:56N 01°17' E 103°46'0 0.0
2018-Feb-15 11:29N 01°17' E 103°46'0 0.0
2018-Feb-15 10:57N 01°17' E 103°46'0 0.0
2018-Feb-15 10:27N 01°17' E 103°46'0 0.0
2018-Feb-15 10:00N 01°17' E 103°46'0 0.0
2018-Feb-15 09:30N 01°17' E 103°46'0 0.0
2018-Feb-15 08:56N 01°17' E 103°46'0 0.0
2018-Feb-15 08:30N 01°17' E 103°46'0 0.0
2018-Feb-15 07:59N 01°17' E 103°46'0 0.0
2018-Feb-15 07:28N 01°17' E 103°46'0 0.0
2018-Feb-15 07:00N 01°17' E 103°46'0 0.0
2018-Feb-15 06:30N 01°17' E 103°46'0 0.0
2018-Feb-15 05:59N 01°17' E 103°46'0 0.0
2018-Feb-15 05:30N 01°17' E 103°46'0 0.0
2018-Feb-15 05:00N 01°17' E 103°46'0 0.0
2018-Feb-15 04:30N 01°17' E 103°46'0 0.0
2018-Feb-15 04:00N 01°17' E 103°46'0 0.0
2018-Feb-15 03:29N 01°17' E 103°46'0 0.0
2018-Feb-15 02:58N 01°17' E 103°46'0 0.0
2018-Feb-15 02:30N 01°17' E 103°46'0 0.0
2018-Feb-15 02:01N 01°17' E 103°46'1 1.1
2018-Feb-15 01:30N 01°17' E 103°45'1 1.5
2018-Feb-15 01:01N 01°17' E 103°45'1 1.4
2018-Feb-15 00:30N 01°17' E 103°45'2 3.9
2018-Feb-15 00:00N 01°15' E 103°44'612.0
2018-Feb-14 23:28N 01°12' E 103°38'3 5.6
2018-Feb-14 23:00N 01°13' E 103°36'4 7.0
2018-Feb-14 22:30N 01°13' E 103°32'3 6.6
2018-Feb-14 22:00N 01°15' E 103°29'1 1.0
2018-Feb-14 20:36N 01°15' E 103°28'0 0.0
2018-Feb-14 20:22N 01°15' E 103°28'0 0.0
2018-Feb-14 19:47N 01°15' E 103°28'0 0.0
2018-Feb-14 19:26N 01°15' E 103°28'0 0.0
2018-Feb-14 18:54N 01°15' E 103°28'0 0.1
2018-Feb-14 17:45N 01°15' E 103°28'0 0.3
2018-Feb-14 17:09N 01°15' E 103°28'1 3.7
2018-Feb-14 17:00N 01°15' E 103°29'4 6.9
2018-Feb-14 16:29N 01°16' E 103°32'5 9.6
2018-Feb-14 16:00N 01°20' E 103°33'0 0.3
2018-Feb-14 15:28N 01°20' E 103°33'0 0.0
2018-Feb-14 14:54N 01°20' E 103°33'0 0.0
2018-Feb-14 14:14N 01°20' E 103°33'0 0.0
2018-Feb-14 13:58N 01°20' E 103°33'0 0.0
2018-Feb-14 13:19N 01°20' E 103°33'0 0.0
2018-Feb-14 12:58N 01°20' E 103°33'0 0.0
2018-Feb-14 12:25N 01°20' E 103°33'0 0.0
2018-Feb-14 11:49N 01°20' E 103°33'0 0.0
2018-Feb-14 11:18N 01°20' E 103°33'0 0.0
2018-Feb-14 10:48N 01°20' E 103°33'0 0.0
2018-Feb-14 10:29N 01°20' E 103°33'0 0.0
2018-Feb-14 09:56N 01°20' E 103°33'0 0.0
2018-Feb-14 09:29N 01°20' E 103°33'0 0.0
2018-Feb-14 08:59N 01°20' E 103°33'0 0.0
2018-Feb-14 08:28N 01°20' E 103°33'0 0.0
2018-Feb-14 07:49N 01°20' E 103°33'0 0.0
2018-Feb-14 07:30N 01°20' E 103°33'0 0.0
2018-Feb-14 06:57N 01°20' E 103°33'0 0.0
2018-Feb-14 06:27N 01°20' E 103°33'0 0.0
2018-Feb-14 05:54N 01°20' E 103°33'0 0.0
2018-Feb-14 05:30N 01°20' E 103°33'0 0.0
2018-Feb-14 04:57N 01°20' E 103°33'0 0.0
2018-Feb-14 04:30N 01°20' E 103°33'0 0.0
2018-Feb-14 03:56N 01°20' E 103°33'0 0.0
2018-Feb-14 03:26N 01°20' E 103°33'0 0.0
2018-Feb-14 03:00N 01°20' E 103°33'0 0.0
2018-Feb-14 02:28N 01°20' E 103°33'0 0.0
2018-Feb-14 01:54N 01°20' E 103°33'0 0.1
2018-Feb-14 01:27N 01°20' E 103°33'0 0.1
2018-Feb-14 00:59N 01°20' E 103°33'0 0.0
2018-Feb-14 00:30N 01°20' E 103°33'0 0.0
2018-Feb-13 23:59N 01°20' E 103°33'0 0.0
2018-Feb-13 23:28N 01°20' E 103°33'0 0.0
2018-Feb-13 22:57N 01°20' E 103°33'0 0.0
2018-Feb-13 22:27N 01°20' E 103°33'0 0.0
2018-Feb-13 21:55N 01°20' E 103°33'0 0.0
2018-Feb-13 21:24N 01°20' E 103°33'0 0.0
2018-Feb-13 20:59N 01°20' E 103°33'0 0.0
2018-Feb-13 20:22N 01°20' E 103°33'0 0.0
2018-Feb-13 19:52N 01°20' E 103°33'0 0.0
2018-Feb-13 19:21N 01°20' E 103°33'0 0.0
2018-Feb-13 18:48N 01°20' E 103°33'0 0.0
2018-Feb-13 18:23N 01°20' E 103°33'0 0.0
2018-Feb-13 17:57N 01°20' E 103°33'0 0.0
2018-Feb-13 17:31N 01°20' E 103°33'0 0.0
2018-Feb-13 16:55N 01°20' E 103°33'0 0.0
2018-Feb-13 16:21N 01°20' E 103°33'0 0.1
2018-Feb-13 15:59N 01°20' E 103°33'2 4.2
2018-Feb-13 15:31N 01°18' E 103°33'4 7.7
2018-Feb-13 15:01N 01°15' E 103°32'1 2.9
2018-Feb-13 14:31N 01°14' E 103°31'2 4.4
2018-Feb-13 13:57N 01°15' E 103°28'0 0.0
2018-Feb-13 13:29N 01°15' E 103°28'0 0.1
2018-Feb-13 12:55N 01°15' E 103°28'0 0.2
2018-Feb-13 12:22N 01°15' E 103°28'0 0.0
2018-Feb-13 11:58N 01°15' E 103°28'0 0.0
2018-Feb-13 11:30N 01°15' E 103°28'0 0.0
2018-Feb-13 10:56N 01°15' E 103°28'0 0.0
2018-Feb-13 10:29N 01°15' E 103°28'0 0.0
2018-Feb-13 08:54N 01°15' E 103°28'0 0.0
2018-Feb-13 08:15N 01°15' E 103°28'0 0.0
2018-Feb-13 08:01N 01°15' E 103°28'0 0.0
2018-Feb-13 07:31N 01°15' E 103°28'0 0.1
2018-Feb-13 07:01N 01°15' E 103°28'0 0.7
2018-Feb-13 06:20N 01°15' E 103°28'0 0.4
2018-Feb-13 05:59N 01°15' E 103°28'0 0.3
2018-Feb-13 05:31N 01°15' E 103°29'0 0.6
2018-Feb-13 05:01N 01°15' E 103°29'0 0.3
2018-Feb-13 04:29N 01°14' E 103°29'1 1.7
2018-Feb-13 04:01N 01°14' E 103°30'1 2.7
2018-Feb-13 03:29N 01°14' E 103°31'0 0.2
2018-Feb-13 02:58N 01°14' E 103°31'0 0.2
2018-Feb-13 02:31N 01°14' E 103°31'0 0.9
2018-Feb-13 02:01N 01°13' E 103°31'0 0.8
2018-Feb-13 01:30N 01°13' E 103°32'0 0.1
2018-Feb-13 00:58N 01°13' E 103°32'1 1.8
2018-Feb-13 00:30N 01°13' E 103°32'3 5.3
2018-Feb-13 00:01N 01°12' E 103°35'5 9.4
2018-Feb-12 23:30N 01°11' E 103°39'5 9.3
2018-Feb-12 23:01N 01°08' E 103°43'5 9.7
2018-Feb-12 22:30N 01°11' E 103°48'510.6
2018-Feb-12 22:00N 01°13' E 103°53'5 9.3
2018-Feb-12 21:30N 01°15' E 103°57'610.7
2018-Feb-12 20:59N 01°16' E 104°02'913.8
2018-Feb-12 20:18N 01°17' E 104°12'  
2018-Feb-07 04:48N 01°15' E 104°06'517.5
2018-Feb-07 04:30N 01°14' E 104°01'917.6
2018-Feb-07 04:00N 01°12' E 103°53'611.7
2018-Feb-07 03:30N 01°13' E 103°47'4 8.5
2018-Feb-07 03:00N 01°17' E 103°46'0 0.7
2018-Feb-07 02:30N 01°17' E 103°46'0 0.0
2018-Feb-07 00:59N 01°17' E 103°46'0 0.0
2018-Feb-07 00:28N 01°17' E 103°46'0 0.0
2018-Feb-06 23:30N 01°17' E 103°46'0 0.0
2018-Feb-06 22:54N 01°17' E 103°46'0 0.0
2018-Feb-06 22:31N 01°17' E 103°46'0 0.0
2018-Feb-06 21:57N 01°17' E 103°46'0 0.0
2018-Feb-06 21:30N 01°17' E 103°46'0 0.0
2018-Feb-06 20:59N 01°17' E 103°46'0 0.0
2018-Feb-06 20:30N 01°17' E 103°46'0 0.0
2018-Feb-06 19:57N 01°17' E 103°46'0 0.0
2018-Feb-06 19:30N 01°17' E 103°46'0 0.0
2018-Feb-06 19:00N 01°17' E 103°46'0 0.0
2018-Feb-06 18:30N 01°17' E 103°46'0 0.0
2018-Feb-06 17:58N 01°17' E 103°46'0 0.0
2018-Feb-06 17:30N 01°17' E 103°46'0 0.0
2018-Feb-06 16:59N 01°17' E 103°46'0 0.0
2018-Feb-06 16:27N 01°17' E 103°46'0 0.0
2018-Feb-06 16:00N 01°17' E 103°46'0 0.0
2018-Feb-06 15:30N 01°17' E 103°46'0 0.0
2018-Feb-06 15:00N 01°17' E 103°46'0 0.0
2018-Feb-06 14:29N 01°17' E 103°46'0 0.0
2018-Feb-06 13:58N 01°17' E 103°46'0 0.0
2018-Feb-06 13:30N 01°17' E 103°46'0 0.0
2018-Feb-06 13:00N 01°17' E 103°46'0 0.0
2018-Feb-06 12:28N 01°17' E 103°46'0 0.0
2018-Feb-06 11:59N 01°17' E 103°46'0 0.0
2018-Feb-06 11:30N 01°17' E 103°46'0 0.0
2018-Feb-06 10:59N 01°17' E 103°46'0 0.0
2018-Feb-06 10:29N 01°17' E 103°46'10 4.1
2018-Feb-06 07:59N 01°12' E 103°37'2 4.1
2018-Feb-06 07:29N 01°12' E 103°35'2 3.3
2018-Feb-06 07:00N 01°13' E 103°33'0 0.2
2018-Feb-06 06:30N 01°13' E 103°33'0 0.2
2018-Feb-06 05:59N 01°13' E 103°33'4 4.0
2018-Feb-06 04:59N 01°17' E 103°33'3 7.3
2018-Feb-06 04:30N 01°21' E 103°33'0 0.4
2018-Feb-06 03:57N 01°21' E 103°33'0 0.0
2018-Feb-06 03:30N 01°21' E 103°33'  
Track history (hours):
 
Tides and Currents Weather Stations Pressure Air Temp Water Temp Dewpoint Dewpoint Depression Visibility Wind Speed Wind Dir Waves Ship Positions

MOL Growth

Last reported at 2018-Feb-16 03:07 UTC. Time now 2018-Feb-23 12:56 UTC.
Position N 01°15' E 104°06'.

Length 275 m; draft 13.2 m.

Type: Ship (hazmat cat A). MMSI: 477947100.

Date/timePositionNaut miles runAvg speedWind from/ knotsBaromVisibWave heightAir tempDewpointWater temp
2018-Feb-16 03:07N 01°15' E 104°06'318.9
2018-Feb-16 02:59N 01°15' E 104°04'918.4
2018-Feb-16 02:30N 01°13' E 103°55'713.4
2018-Feb-16 02:00N 01°12' E 103°49'611.3
2018-Feb-16 01:30N 01°16' E 103°45'1 1.9
2018-Feb-16 00:58N 01°17' E 103°46'0 0.0
2018-Feb-16 00:29N 01°17' E 103°46'0 0.0
2018-Feb-16 00:00N 01°17' E 103°46'0 0.0
2018-Feb-15 23:30N 01°17' E 103°46'0 0.0
2018-Feb-15 22:59N 01°17' E 103°46'0 0.0
2018-Feb-15 22:29N 01°17' E 103°46'0 0.0
2018-Feb-15 21:58N 01°17' E 103°46'0 0.0
2018-Feb-15 21:29N 01°17' E 103°46'0 0.0
2018-Feb-15 21:00N 01°17' E 103°46'0 0.0
2018-Feb-15 20:26N 01°17' E 103°46'0 0.0
2018-Feb-15 19:59N 01°17' E 103°46'0 0.0
2018-Feb-15 19:29N 01°17' E 103°46'0 0.0
2018-Feb-15 18:58N 01°17' E 103°46'0 0.0
2018-Feb-15 18:29N 01°17' E 103°46'0 0.0
2018-Feb-15 17:59N 01°17' E 103°46'0 0.0
2018-Feb-15 17:28N 01°17' E 103°46'0 0.0
2018-Feb-15 16:56N 01°17' E 103°46'0 0.0
2018-Feb-15 16:29N 01°17' E 103°46'0 0.0
2018-Feb-15 16:00N 01°17' E 103°46'0 0.0
2018-Feb-15 15:30N 01°17' E 103°46'0 0.0
2018-Feb-15 15:00N 01°17' E 103°46'0 0.0
2018-Feb-15 14:25N 01°17' E 103°46'0 0.0
2018-Feb-15 14:00N 01°17' E 103°46'0 0.0
2018-Feb-15 13:30N 01°17' E 103°46'0 0.0
2018-Feb-15 13:00N 01°17' E 103°46'0 0.0
2018-Feb-15 12:26N 01°17' E 103°46'0 0.0
2018-Feb-15 11:56N 01°17' E 103°46'0 0.0
2018-Feb-15 11:29N 01°17' E 103°46'0 0.0
2018-Feb-15 10:57N 01°17' E 103°46'0 0.0
2018-Feb-15 10:27N 01°17' E 103°46'0 0.0
2018-Feb-15 10:00N 01°17' E 103°46'0 0.0
2018-Feb-15 09:30N 01°17' E 103°46'0 0.0
2018-Feb-15 08:56N 01°17' E 103°46'0 0.0
2018-Feb-15 08:30N 01°17' E 103°46'0 0.0
2018-Feb-15 07:59N 01°17' E 103°46'0 0.0
2018-Feb-15 07:28N 01°17' E 103°46'0 0.0
2018-Feb-15 07:00N 01°17' E 103°46'0 0.0
2018-Feb-15 06:30N 01°17' E 103°46'0 0.0
2018-Feb-15 05:59N 01°17' E 103°46'0 0.0
2018-Feb-15 05:30N 01°17' E 103°46'0 0.0
2018-Feb-15 05:00N 01°17' E 103°46'0 0.0
2018-Feb-15 04:30N 01°17' E 103°46'0 0.0
2018-Feb-15 04:00N 01°17' E 103°46'0 0.0
2018-Feb-15 03:29N 01°17' E 103°46'0 0.0
2018-Feb-15 02:58N 01°17' E 103°46'0 0.0
2018-Feb-15 02:30N 01°17' E 103°46'0 0.0
2018-Feb-15 02:01N 01°17' E 103°46'1 1.1
2018-Feb-15 01:30N 01°17' E 103°45'1 1.5
2018-Feb-15 01:01N 01°17' E 103°45'1 1.4
2018-Feb-15 00:30N 01°17' E 103°45'2 3.9
2018-Feb-15 00:00N 01°15' E 103°44'612.0
2018-Feb-14 23:28N 01°12' E 103°38'3 5.6
2018-Feb-14 23:00N 01°13' E 103°36'4 7.0
2018-Feb-14 22:30N 01°13' E 103°32'3 6.6
2018-Feb-14 22:00N 01°15' E 103°29'1 1.0
2018-Feb-14 20:36N 01°15' E 103°28'0 0.0
2018-Feb-14 20:22N 01°15' E 103°28'0 0.0
2018-Feb-14 19:47N 01°15' E 103°28'0 0.0
2018-Feb-14 19:26N 01°15' E 103°28'0 0.0
2018-Feb-14 18:54N 01°15' E 103°28'0 0.1
2018-Feb-14 17:45N 01°15' E 103°28'0 0.3
2018-Feb-14 17:09N 01°15' E 103°28'1 3.7
2018-Feb-14 17:00N 01°15' E 103°29'4 6.9
2018-Feb-14 16:29N 01°16' E 103°32'5 9.6
2018-Feb-14 16:00N 01°20' E 103°33'0 0.3
2018-Feb-14 15:28N 01°20' E 103°33'0 0.0
2018-Feb-14 14:54N 01°20' E 103°33'0 0.0
2018-Feb-14 14:14N 01°20' E 103°33'0 0.0
2018-Feb-14 13:58N 01°20' E 103°33'0 0.0
2018-Feb-14 13:19N 01°20' E 103°33'0 0.0
2018-Feb-14 12:58N 01°20' E 103°33'0 0.0
2018-Feb-14 12:25N 01°20' E 103°33'0 0.0
2018-Feb-14 11:49N 01°20' E 103°33'0 0.0
2018-Feb-14 11:18N 01°20' E 103°33'0 0.0
2018-Feb-14 10:48N 01°20' E 103°33'0 0.0
2018-Feb-14 10:29N 01°20' E 103°33'0 0.0
2018-Feb-14 09:56N 01°20' E 103°33'0 0.0
2018-Feb-14 09:29N 01°20' E 103°33'0 0.0
2018-Feb-14 08:59N 01°20' E 103°33'0 0.0
2018-Feb-14 08:28N 01°20' E 103°33'0 0.0
2018-Feb-14 07:49N 01°20' E 103°33'0 0.0
2018-Feb-14 07:30N 01°20' E 103°33'0 0.0
2018-Feb-14 06:57N 01°20' E 103°33'0 0.0
2018-Feb-14 06:27N 01°20' E 103°33'0 0.0
2018-Feb-14 05:54N 01°20' E 103°33'0 0.0
2018-Feb-14 05:30N 01°20' E 103°33'0 0.0
2018-Feb-14 04:57N 01°20' E 103°33'0 0.0
2018-Feb-14 04:30N 01°20' E 103°33'0 0.0
2018-Feb-14 03:56N 01°20' E 103°33'0 0.0
2018-Feb-14 03:26N 01°20' E 103°33'0 0.0
2018-Feb-14 03:00N 01°20' E 103°33'0 0.0
2018-Feb-14 02:28N 01°20' E 103°33'0 0.0
2018-Feb-14 01:54N 01°20' E 103°33'0 0.1
2018-Feb-14 01:27N 01°20' E 103°33'0 0.1
2018-Feb-14 00:59N 01°20' E 103°33'0 0.0
2018-Feb-14 00:30N 01°20' E 103°33'0 0.0
2018-Feb-13 23:59N 01°20' E 103°33'0 0.0
2018-Feb-13 23:28N 01°20' E 103°33'0 0.0
2018-Feb-13 22:57N 01°20' E 103°33'0 0.0
2018-Feb-13 22:27N 01°20' E 103°33'0 0.0
2018-Feb-13 21:55N 01°20' E 103°33'0 0.0
2018-Feb-13 21:24N 01°20' E 103°33'0 0.0
2018-Feb-13 20:59N 01°20' E 103°33'0 0.0
2018-Feb-13 20:22N 01°20' E 103°33'0 0.0
2018-Feb-13 19:52N 01°20' E 103°33'0 0.0
2018-Feb-13 19:21N 01°20' E 103°33'0 0.0
2018-Feb-13 18:48N 01°20' E 103°33'0 0.0
2018-Feb-13 18:23N 01°20' E 103°33'0 0.0
2018-Feb-13 17:57N 01°20' E 103°33'0 0.0
2018-Feb-13 17:31N 01°20' E 103°33'0 0.0
2018-Feb-13 16:55N 01°20' E 103°33'0 0.0
2018-Feb-13 16:21N 01°20' E 103°33'0 0.1
2018-Feb-13 15:59N 01°20' E 103°33'2 4.2
2018-Feb-13 15:31N 01°18' E 103°33'4 7.7
2018-Feb-13 15:01N 01°15' E 103°32'1 2.9
2018-Feb-13 14:31N 01°14' E 103°31'2 4.4
2018-Feb-13 13:57N 01°15' E 103°28'0 0.0
2018-Feb-13 13:29N 01°15' E 103°28'0 0.1
2018-Feb-13 12:55N 01°15' E 103°28'0 0.2
2018-Feb-13 12:22N 01°15' E 103°28'0 0.0
2018-Feb-13 11:58N 01°15' E 103°28'0 0.0
2018-Feb-13 11:30N 01°15' E 103°28'0 0.0
2018-Feb-13 10:56N 01°15' E 103°28'0 0.0
2018-Feb-13 10:29N 01°15' E 103°28'0 0.0
2018-Feb-13 08:54N 01°15' E 103°28'0 0.0
2018-Feb-13 08:15N 01°15' E 103°28'0 0.0
2018-Feb-13 08:01N 01°15' E 103°28'0 0.0
2018-Feb-13 07:31N 01°15' E 103°28'0 0.1
2018-Feb-13 07:01N 01°15' E 103°28'0 0.7
2018-Feb-13 06:20N 01°15' E 103°28'0 0.4
2018-Feb-13 05:59N 01°15' E 103°28'0 0.3
2018-Feb-13 05:31N 01°15' E 103°29'0 0.6
2018-Feb-13 05:01N 01°15' E 103°29'0 0.3
2018-Feb-13 04:29N 01°14' E 103°29'1 1.7
2018-Feb-13 04:01N 01°14' E 103°30'1 2.7
2018-Feb-13 03:29N 01°14' E 103°31'0 0.2
2018-Feb-13 02:58N 01°14' E 103°31'0 0.2
2018-Feb-13 02:31N 01°14' E 103°31'0 0.9
2018-Feb-13 02:01N 01°13' E 103°31'0 0.8
2018-Feb-13 01:30N 01°13' E 103°32'0 0.1
2018-Feb-13 00:58N 01°13' E 103°32'1 1.8
2018-Feb-13 00:30N 01°13' E 103°32'3 5.3
2018-Feb-13 00:01N 01°12' E 103°35'5 9.4
2018-Feb-12 23:30N 01°11' E 103°39'5 9.3
2018-Feb-12 23:01N 01°08' E 103°43'5 9.7
2018-Feb-12 22:30N 01°11' E 103°48'510.6
2018-Feb-12 22:00N 01°13' E 103°53'5 9.3
2018-Feb-12 21:30N 01°15' E 103°57'610.7
2018-Feb-12 20:59N 01°16' E 104°02'913.8
2018-Feb-12 20:18N 01°17' E 104°12'  
2018-Feb-07 04:48N 01°15' E 104°06'517.5
2018-Feb-07 04:30N 01°14' E 104°01'917.6
2018-Feb-07 04:00N 01°12' E 103°53'611.7
2018-Feb-07 03:30N 01°13' E 103°47'4 8.5
2018-Feb-07 03:00N 01°17' E 103°46'0 0.7
2018-Feb-07 02:30N 01°17' E 103°46'0 0.0
2018-Feb-07 00:59N 01°17' E 103°46'0 0.0
2018-Feb-07 00:28N 01°17' E 103°46'0 0.0
2018-Feb-06 23:30N 01°17' E 103°46'0 0.0
2018-Feb-06 22:54N 01°17' E 103°46'0 0.0
2018-Feb-06 22:31N 01°17' E 103°46'0 0.0
2018-Feb-06 21:57N 01°17' E 103°46'0 0.0
2018-Feb-06 21:30N 01°17' E 103°46'0 0.0
2018-Feb-06 20:59N 01°17' E 103°46'0 0.0
2018-Feb-06 20:30N 01°17' E 103°46'0 0.0
2018-Feb-06 19:57N 01°17' E 103°46'0 0.0
2018-Feb-06 19:30N 01°17' E 103°46'0 0.0
2018-Feb-06 19:00N 01°17' E 103°46'0 0.0
2018-Feb-06 18:30N 01°17' E 103°46'0 0.0
2018-Feb-06 17:58N 01°17' E 103°46'0 0.0
2018-Feb-06 17:30N 01°17' E 103°46'0 0.0
2018-Feb-06 16:59N 01°17' E 103°46'0 0.0
2018-Feb-06 16:27N 01°17' E 103°46'0 0.0
2018-Feb-06 16:00N 01°17' E 103°46'0 0.0
2018-Feb-06 15:30N 01°17' E 103°46'0 0.0
2018-Feb-06 15:00N 01°17' E 103°46'0 0.0
2018-Feb-06 14:29N 01°17' E 103°46'0 0.0
2018-Feb-06 13:58N 01°17' E 103°46'0 0.0
2018-Feb-06 13:30N 01°17' E 103°46'0 0.0
2018-Feb-06 13:00N 01°17' E 103°46'0 0.0
2018-Feb-06 12:28N 01°17' E 103°46'0 0.0
2018-Feb-06 11:59N 01°17' E 103°46'0 0.0
2018-Feb-06 11:30N 01°17' E 103°46'0 0.0
2018-Feb-06 10:59N 01°17' E 103°46'0 0.0
2018-Feb-06 10:29N 01°17' E 103°46'10 4.1
2018-Feb-06 07:59N 01°12' E 103°37'2 4.1
2018-Feb-06 07:29N 01°12' E 103°35'2 3.3
2018-Feb-06 07:00N 01°13' E 103°33'0 0.2
2018-Feb-06 06:30N 01°13' E 103°33'0 0.2
2018-Feb-06 05:59N 01°13' E 103°33'4 4.0
2018-Feb-06 04:59N 01°17' E 103°33'3 7.3
2018-Feb-06 04:30N 01°21' E 103°33'0 0.4
2018-Feb-06 03:57N 01°21' E 103°33'0 0.0
2018-Feb-06 03:30N 01°21' E 103°33'  

Dump ship's entire track history